Metar Cercanos

 

LEPA - Palma De Mallorc, Spain
Distance from station: ONO 38km
Actualización: Wed, 20-Oct-2021 12:30am CEST
Few Clouds
Few Clouds
 Viento del NE
Viento: NE 6 km/h
Temperatura: 15°C
Rocío: 12°C
Humedad: 82%
Barómetro: 1027 hPa
Clouds: Few Clouds
Visibility: 10 km
Cloud details: Few Clouds 762 m
2021/10/19 22:30 LEPA 192230Z 05003KT 9999 FEW025 15/12 Q1027 NOSIG
LEMH - Mahon/Menorca Is, Spain
Distance from station: ENE 105km
Actualización: Wed, 20-Oct-2021 12:30am CEST
Despejado
Despejado
 Viento del SE
Viento: SE 7 km/h
Temperatura: 17°C
Rocío: 12°C
Humedad: 73%
Barómetro: 1027 hPa
Resumen: Despejado
Visibility: greater than 10 km
2021/10/19 22:30 LEMH 192230Z 14004KT CAVOK 17/12 Q1027
 
LEIB - Ibiza/Es Codola, Spain
Distance from station: OSO 165km
Actualización: Wed, 20-Oct-2021 12:30am CEST
Few Clouds
Few Clouds
 Viento del SE
Viento: SE 7 km/h
Temperatura: 20°C
Rocío: 14°C
Humedad: 69%
Barómetro: 1026 hPa
Clouds: Few Clouds
Visibility: 10 km
Cloud details: Few Clouds 884 m
2021/10/19 22:30 LEIB 192230Z 13004KT 100V170 9999 FEW029 20/14 Q1026 NOSIG
LEBL - Barcelona Airpor, Spain
Distance from station: NNO 225km
Actualización: Wed, 20-Oct-2021 12:30am CEST
Few Clouds
Few Clouds
 Viento del SO
Viento: SO 15 km/h
Temperatura: 21°C
Rocío: 17°C
Humedad: 78%
Barómetro: 1025 hPa
Clouds: Few Clouds
Visibility: 10 km
Cloud details: Few Clouds 671 m
2021/10/19 22:30 LEBL 192230Z 22008KT 9999 FEW022 21/17 Q1025 NOSIG
 
LEVC - Valencia (civ/Mi, Spain
Distance from station: NO 188km
Actualización: Wed, 20-Oct-2021 12:30am CEST
Despejado
Despejado
 Viento del NNO
Viento: NNO 11 km/h
Temperatura: 18°C
Rocío: 16°C
Humedad: 88%
Barómetro: 1026 hPa
Resumen: Despejado
Visibility: greater than 10 km
2021/10/19 22:30 LEVC 192230Z 33006KT CAVOK 18/16 Q1026 NOSIG
LEGE - Gerona/Costa Bra, Spain
Distance from station: N 276km
Actualización: Wed, 20-Oct-2021 12:30am CEST
Despejado
Despejado
 Viento del SSO
Viento: SSO 22 km/h
Temperatura: 19°C
Rocío: 16°C
Humedad: 83%
Barómetro: 1024 hPa
Resumen: Despejado
Visibility: greater than 10 km
2021/10/19 22:30 LEGE 192230Z 21012KT CAVOK 19/16 Q1024
 
LEAL - Alicante/El Alte, Spain
Distance from station: OSO 344km
Actualización: Wed, 20-Oct-2021 12:30am CEST
Few Clouds
Few Clouds
 Viento del N
Viento: N 9 km/h
Temperatura: 19°C
Rocío: 14°C
Humedad: 73%
Barómetro: 1026 hPa
Clouds: Few Clouds
Visibility: 10 km
Cloud details: Few Clouds 792 m
2021/10/19 22:30 LEAL 192230Z 36005KT 9999 FEW026 19/14 Q1026 NOSIG
LEAM - Almeria Airport, Spain
Distance from station: SSO 56km
Actualización: Wed, 20-Oct-2021 12:30am CEST
Despejado
Despejado
 Viento del NNE
Viento: NNE 7 km/h
Temperatura: 20°C
Rocío: 14°C
Humedad: 69%
Barómetro: 1024 hPa
Resumen: Despejado
Visibility: greater than 10 km
2021/10/19 22:30 LEAM 192230Z AUTO 03004KT 340V070 CAVOK 20/14 Q1024
 
LEZG - Zaragoza (mil/Ci, Spain
Distance from station: NO 431km
Actualización: Wed, 20-Oct-2021 12:30am CEST
Despejado
Despejado
 Viento del E
Viento: E 9 km/h
Temperatura: 17°C
Rocío: 14°C
Humedad: 83%
Barómetro: 1024 hPa
Resumen: Despejado
Visibility: greater than 10 km
2021/10/19 22:30 LEZG 192230Z 08005KT CAVOK 17/14 Q1024
LEMD - Madrid/Barajas, Spain
Distance from station: ONO 234km
Actualización: Wed, 20-Oct-2021 12:30am CEST
Despejado
Despejado
 Viento del ESE
Viento: ESE 6 km/h
Temperatura: 16°C
Rocío: 11°C
Humedad: 72%
Barómetro: 1025 hPa
Resumen: Despejado
Visibility: greater than 10 km
2021/10/19 22:30 LEMD 192230Z 11003KT CAVOK 16/11 Q1025 NOSIG
 
LEGR - Granada Airport, Spain
Distance from station: OSO 62km
Actualización: Wed, 20-Oct-2021 12:30am CEST
Despejado
Despejado
 Viento del ENE
Viento: ENE 4 km/h
Temperatura: 17°C
Rocío: 13°C
Humedad: 77%
Barómetro: 1025 hPa
Resumen: Despejado
Visibility: greater than 10 km
2021/10/19 22:30 LEGR 192230Z AUTO 06002KT CAVOK 17/13 Q1025
LEMG - Malaga (civ/Mil), Spain
Distance from station: OSO 227km
Actualización: Wed, 20-Oct-2021 12:30am CEST
Muy nuboso
Muy nuboso
 Viento del O
Viento: O 7 km/h
Temperatura: 19°C
Rocío: 18°C
Humedad: 94%
Barómetro: 1024 hPa
Clouds: Muy nuboso
Visibility: 10 km
Cloud details: Muy nuboso 549 m
2021/10/19 22:30 LEMG 192230Z 28004KT 9999 BKN018 19/18 Q1024 NOSIG
 
LEZL - Sevilla (civ/Mil, Spain
Distance from station: S 318km
Actualización: Wed, 20-Oct-2021 12:30am CEST
Despejado
Despejado
 Viento del NE
Viento: NE 6 km/h
Temperatura: 20°C
Rocío: 10°C
Humedad: 53%
Barómetro: 1022 hPa
Resumen: Despejado
Visibility: greater than 10 km
2021/10/19 22:30 LEZL 192230Z 04003KT CAVOK 20/10 Q1022 NOSIG
LEVT - Vitoria, Spain
Distance from station: NO 226km
Actualización: Wed, 20-Oct-2021 12:30am CEST
Despejado
Despejado
 Viento del SSE
Viento: SSE 6 km/h
Temperatura: 14°C
Rocío: 11°C
Humedad: 82%
Barómetro: 1022 hPa
Resumen: Despejado
Visibility: greater than 10 km
2021/10/19 22:30 LEVT 192230Z 16003KT 100V220 CAVOK 14/11 Q1022
 
LEBB - Bilbao/Sondica, Spain
Distance from station: NNO 235km
Actualización: Wed, 20-Oct-2021 12:30am CEST
Despejado
Despejado
 Viento del SE
Viento: SE 15 km/h
Temperatura: 24°C
Rocío: 14°C
Humedad: 54%
Barómetro: 1018 hPa
Resumen: Despejado
Visibility: greater than 10 km
2021/10/19 22:30 LEBB 192230Z AUTO 14008KT 080V190 CAVOK 24/14 Q1018
LESO - San Sebastian/Fu, Spain
Distance from station: N 231km
Actualización: Wed, 20-Oct-2021 12:30am CEST
Despejado
Despejado
 Viento del SSO
Viento: SSO 11 km/h
Temperatura: 25°C
Rocío: 13°C
Humedad: 47%
Barómetro: 1017 hPa
Resumen: Despejado
Visibility: greater than 10 km
2021/10/19 22:30 LESO 192230Z AUTO 20006KT 160V230 CAVOK 25/13 Q1017
 
LEVD - Valladolid(Mil/C, Spain
Distance from station: ONO 239km
Actualización: Wed, 20-Oct-2021 12:30am CEST
Despejado
Despejado
 Viento del SSO
Viento: SSO 11 km/h
Temperatura: 15°C
Rocío: 12°C
Humedad: 82%
Barómetro: 1024 hPa
Resumen: Despejado
Visibility: greater than 10 km
2021/10/19 22:30 LEVD 192230Z AUTO 21006KT CAVOK 15/12 Q1024
LESA - Salamanca (civ/M, Spain
Distance from station: ONO 349km
Actualización: Wed, 20-Oct-2021 12:30am CEST
Despejado
Despejado
 Viento del ESE
Viento: ESE 2 km/h
Temperatura: 13°C
Rocío: 10°C
Humedad: 82%
Barómetro: 1024 hPa
Resumen: Despejado
Visibility: greater than 10 km
2021/10/19 22:30 LESA 192230Z AUTO 12001KT CAVOK 13/10 Q1024
 
LEXJ - Santander/Paraya, Spain
Distance from station: NNO 247km
Actualización: Wed, 20-Oct-2021 12:30am CEST
Despejado
Despejado
 Viento del SO
Viento: SO 15 km/h, Racha: 33 km/h
Temperatura: 27°C
Indice Calor: 27°C
Rocío: 15°C
Humedad: 48%
Barómetro: 1016 hPa
Resumen: Despejado
Visibility: greater than 10 km
2021/10/19 22:30 LEXJ 192230Z 22008G18KT 170V260 CAVOK 27/15 Q1016
LEAS - Asturias/Aviles, Spain
Distance from station: NO 214km
Actualización: Wed, 20-Oct-2021 12:30am CEST
Despejado
Despejado
 Viento del O
Viento: O 7 km/h
Temperatura: 20°C
Rocío: 16°C
Humedad: 78%
Barómetro: 1016 hPa
Resumen: Despejado
Visibility: greater than 10 km
2021/10/19 22:30 LEAS 192230Z 27004KT CAVOK 20/16 Q1016 NOSIG
 
LECO - La Coruna/Alvedr, Spain
Distance from station: ONO 222km
Actualización: Wed, 20-Oct-2021 12:30am CEST
Few Clouds
Few Clouds
 Viento del S
Viento: S 20 km/h
Temperatura: 19°C
Rocío: 18°C
Humedad: 94%
Barómetro: 1018 hPa
Clouds: Few Clouds
Visibility: 10 km
Cloud details: Few Clouds 762 m
2021/10/19 22:30 LECO 192230Z 17011KT 140V200 9999 FEW025 19/18 Q1018 NOSIG
LEVX - Vigo/Peinador, Spain
Distance from station: O 214km
Actualización: Wed, 20-Oct-2021 12:30am CEST
Parcialmente nuboso
Parcialmente nuboso
 Viento del S
Viento: S 22 km/h
Temperatura: 19°C
Rocío: 15°C
Humedad: 78%
Barómetro: 1021 hPa
Clouds: Parcialmente nuboso
Visibility: 10 km
Cloud details: Few Clouds 762 m
Parcialmente nuboso 1097 m
2021/10/19 22:30 LEVX 192230Z 19012KT 9999 FEW025 SCT036 19/15 Q1021 NOSIG